sensor_id;sensor_type;location;lat;lon;timestamp;pressure;altitude;pressure_sealevel;temperature;humidity
69796;BME280;57073;45.650;9.612;2023-05-09T00:03:46;99537.63;;;15.78;65.69
69796;BME280;57073;45.650;9.612;2023-05-09T00:08:47;99548.59;;;15.94;65.92
69796;BME280;57073;45.650;9.612;2023-05-09T00:13:48;99537.13;;;15.87;67.59
69796;BME280;57073;45.650;9.612;2023-05-09T00:18:49;99531.34;;;15.78;67.41
69796;BME280;57073;45.650;9.612;2023-05-09T00:23:50;99527.94;;;16.03;67.34
69796;BME280;57073;45.650;9.612;2023-05-09T00:28:50;99528.50;;;16.00;67.75
69796;BME280;57073;45.650;9.612;2023-05-09T00:33:52;99529.28;;;15.95;67.73
69796;BME280;57073;45.650;9.612;2023-05-09T00:38:53;99527.63;;;15.84;68.57
69796;BME280;57073;45.650;9.612;2023-05-09T00:43:53;99524.34;;;15.82;68.43
69796;BME280;57073;45.650;9.612;2023-05-09T00:48:54;99516.56;;;15.48;68.49
69796;BME280;57073;45.650;9.612;2023-05-09T00:53:55;99525.44;;;15.81;67.35
69796;BME280;57073;45.650;9.612;2023-05-09T00:58:55;99510.19;;;15.80;67.23
69796;BME280;57073;45.650;9.612;2023-05-09T01:03:55;99499.47;;;15.53;67.42
69796;BME280;57073;45.650;9.612;2023-05-09T01:09:07;99502.63;;;15.87;66.48
69796;BME280;57073;45.650;9.612;2023-05-09T01:25:05;99502.69;;;16.08;67.73
69796;BME280;57073;45.650;9.612;2023-05-09T01:30:12;99503.47;;;16.08;68.63
69796;BME280;57073;45.650;9.612;2023-05-09T01:35:15;99493.44;;;16.14;68.72
69796;BME280;57073;45.650;9.612;2023-05-09T01:40:18;99493.94;;;16.01;69.36
69796;BME280;57073;45.650;9.612;2023-05-09T01:45:20;99489.31;;;15.91;69.01
69796;BME280;57073;45.650;9.612;2023-05-09T01:50:21;99490.13;;;16.02;69.08
69796;BME280;57073;45.650;9.612;2023-05-09T01:55:25;99500.50;;;16.10;69.32
69796;BME280;57073;45.650;9.612;2023-05-09T02:00:27;99493.16;;;16.15;69.65
69796;BME280;57073;45.650;9.612;2023-05-09T02:05:29;99490.72;;;16.14;70.00
69796;BME280;57073;45.650;9.612;2023-05-09T02:10:31;99485.28;;;16.14;69.31
69796;BME280;57073;45.650;9.612;2023-05-09T02:15:32;99488.56;;;16.11;69.13
69796;BME280;57073;45.650;9.612;2023-05-09T02:20:33;99490.97;;;16.12;69.89
69796;BME280;57073;45.650;9.612;2023-05-09T02:25:35;99496.97;;;16.20;68.55
69796;BME280;57073;45.650;9.612;2023-05-09T02:30:39;99494.53;;;16.23;69.09
69796;BME280;57073;45.650;9.612;2023-05-09T02:35:43;99492.06;;;16.11;71.27
69796;BME280;57073;45.650;9.612;2023-05-09T02:40:46;99489.63;;;16.10;70.95
69796;BME280;57073;45.650;9.612;2023-05-09T02:45:46;99485.00;;;16.10;70.70
69796;BME280;57073;45.650;9.612;2023-05-09T02:50:46;99488.28;;;16.07;70.39
69796;BME280;57073;45.650;9.612;2023-05-09T02:55:47;99486.03;;;15.94;70.32
69796;BME280;57073;45.650;9.612;2023-05-09T03:00:47;99478.44;;;16.01;69.24
69796;BME280;57073;45.650;9.612;2023-05-09T03:05:47;99477.34;;;15.97;69.27
69796;BME280;57073;45.650;9.612;2023-05-09T03:10:48;99473.25;;;15.89;68.72
69796;BME280;57073;45.650;9.612;2023-05-09T03:15:48;99491.47;;;15.94;69.20
69796;BME280;57073;45.650;9.612;2023-05-09T03:20:48;99486.59;;;15.96;69.40
69796;BME280;57073;45.650;9.612;2023-05-09T03:25:49;99483.34;;;15.99;69.19
69796;BME280;57073;45.650;9.612;2023-05-09T03:30:49;99480.34;;;15.95;69.22
69796;BME280;57073;45.650;9.612;2023-05-09T03:35:50;99482.50;;;15.93;71.14
69796;BME280;57073;45.650;9.612;2023-05-09T03:40:52;99484.44;;;15.98;71.00
69796;BME280;57073;45.650;9.612;2023-05-09T03:45:52;99481.72;;;16.03;70.61
69796;BME280;57073;45.650;9.612;2023-05-09T03:50:53;99490.13;;;16.02;69.98
69796;BME280;57073;45.650;9.612;2023-05-09T03:55:53;99473.56;;;16.03;69.49
69796;BME280;57073;45.650;9.612;2023-05-09T04:00:54;99474.94;;;16.06;68.83
69796;BME280;57073;45.650;9.612;2023-05-09T04:05:55;99490.69;;;15.99;70.31
69796;BME280;57073;45.650;9.612;2023-05-09T04:10:55;99497.25;;;16.08;69.17
69796;BME280;57073;45.650;9.612;2023-05-09T04:15:56;99493.69;;;16.02;70.28
69796;BME280;57073;45.650;9.612;2023-05-09T04:20:56;99493.94;;;16.01;67.97
69796;BME280;57073;45.650;9.612;2023-05-09T04:25:56;99495.28;;;15.88;66.39
69796;BME280;57073;45.650;9.612;2023-05-09T04:30:57;99489.50;;;15.79;68.01
69796;BME280;57073;45.650;9.612;2023-05-09T04:35:57;99486.19;;;15.67;68.82
69796;BME280;57073;45.650;9.612;2023-05-09T04:40:57;99487.56;;;15.69;68.85
69796;BME280;57073;45.650;9.612;2023-05-09T04:45:58;99488.84;;;15.51;68.36
69796;BME280;57073;45.650;9.612;2023-05-09T04:50:58;99494.59;;;15.65;67.96
69796;BME280;57073;45.650;9.612;2023-05-09T04:55:59;99489.41;;;15.53;67.29
69796;BME280;57073;45.650;9.612;2023-05-09T05:00:59;99497.28;;;15.50;67.13
69796;BME280;57073;45.650;9.612;2023-05-09T05:06:00;99503.59;;;15.66;66.56
69796;BME280;57073;45.650;9.612;2023-05-09T05:11:00;99486.13;;;15.51;64.65
69796;BME280;57073;45.650;9.612;2023-05-09T05:16:00;99496.53;;;15.17;64.88
69796;BME280;57073;45.650;9.612;2023-05-09T05:21:01;99500.19;;;14.95;64.51
69796;BME280;57073;45.650;9.612;2023-05-09T05:26:02;99508.28;;;15.28;64.04
69796;BME280;57073;45.650;9.612;2023-05-09T05:31:02;99518.16;;;15.44;64.21
69796;BME280;57073;45.650;9.612;2023-05-09T05:36:03;99523.66;;;15.59;63.21
69796;BME280;57073;45.650;9.612;2023-05-09T05:41:03;99512.81;;;15.65;64.57
69796;BME280;57073;45.650;9.612;2023-05-09T05:46:04;99527.50;;;15.64;64.33
69796;BME280;57073;45.650;9.612;2023-05-09T05:51:05;99522.06;;;15.64;64.34
69796;BME280;57073;45.650;9.612;2023-05-09T05:56:05;99512.28;;;15.63;65.33
69796;BME280;57073;45.650;9.612;2023-05-09T06:01:06;99515.47;;;15.54;65.88
69796;BME280;57073;45.650;9.612;2023-05-09T06:06:06;99509.44;;;15.37;63.11
69796;BME280;57073;45.650;9.612;2023-05-09T06:11:06;99510.66;;;15.67;62.49
69796;BME280;57073;45.650;9.612;2023-05-09T06:16:07;99515.19;;;15.51;61.86
69796;BME280;57073;45.650;9.612;2023-05-09T06:21:08;99507.88;;;15.51;61.81
69796;BME280;57073;45.650;9.612;2023-05-09T06:26:08;99504.25;;;15.35;61.76
69796;BME280;57073;45.650;9.612;2023-05-09T06:31:08;99501.31;;;15.47;61.88
69796;BME280;57073;45.650;9.612;2023-05-09T06:36:09;99501.72;;;15.24;62.21
69796;BME280;57073;45.650;9.612;2023-05-09T06:41:09;99500.47;;;15.42;62.67
69796;BME280;57073;45.650;9.612;2023-05-09T06:46:10;99502.44;;;15.51;62.17
69796;BME280;57073;45.650;9.612;2023-05-09T06:51:10;99495.84;;;15.37;62.40
69796;BME280;57073;45.650;9.612;2023-05-09T06:56:11;99502.41;;;15.46;61.91
69796;BME280;57073;45.650;9.612;2023-05-09T07:01:11;99513.53;;;15.45;61.25
69796;BME280;57073;45.650;9.612;2023-05-09T07:06:12;99496.97;;;15.46;59.78
69796;BME280;57073;45.650;9.612;2023-05-09T07:11:12;99498.88;;;15.46;59.93
69796;BME280;57073;45.650;9.612;2023-05-09T07:16:13;99501.84;;;15.39;59.95
69796;BME280;57073;45.650;9.612;2023-05-09T07:21:14;99507.50;;;15.32;59.93
69796;BME280;57073;45.650;9.612;2023-05-09T07:26:15;99501.88;;;15.54;58.88
69796;BME280;57073;45.650;9.612;2023-05-09T07:31:15;99506.78;;;15.52;58.04
69796;BME280;57073;45.650;9.612;2023-05-09T07:36:15;99510.63;;;15.62;58.22
69796;BME280;57073;45.650;9.612;2023-05-09T07:41:16;99513.50;;;15.92;58.04
69796;BME280;57073;45.650;9.612;2023-05-09T07:46:16;99505.38;;;16.03;57.70
69796;BME280;57073;45.650;9.612;2023-05-09T07:51:17;99505.13;;;16.20;57.07
69796;BME280;57073;45.650;9.612;2023-05-09T07:56:17;99496.69;;;16.16;55.46
69796;BME280;57073;45.650;9.612;2023-05-09T08:01:17;99489.66;;;16.30;55.34
69796;BME280;57073;45.650;9.612;2023-05-09T08:06:18;99495.16;;;16.56;56.93
69796;BME280;57073;45.650;9.612;2023-05-09T08:11:18;99490.75;;;16.70;55.97
69796;BME280;57073;45.650;9.612;2023-05-09T08:16:18;99479.63;;;16.62;54.84
69796;BME280;57073;45.650;9.612;2023-05-09T08:21:20;99476.91;;;16.62;54.71
69796;BME280;57073;45.650;9.612;2023-05-09T08:26:20;99463.56;;;16.55;54.53
69796;BME280;57073;45.650;9.612;2023-05-09T08:31:22;99455.09;;;16.67;53.92
69796;BME280;57073;45.650;9.612;2023-05-09T08:36:23;99464.09;;;16.88;54.61
69796;BME280;57073;45.650;9.612;2023-05-09T08:41:25;99449.38;;;16.94;54.41
69796;BME280;57073;45.650;9.612;2023-05-09T08:46:32;99451.56;;;16.97;54.28
69796;BME280;57073;45.650;9.612;2023-05-09T08:51:34;99454.47;;;17.26;54.43
69796;BME280;57073;45.650;9.612;2023-05-09T08:56:35;99454.25;;;17.13;54.88
69796;BME280;57073;45.650;9.612;2023-05-09T09:01:36;99455.25;;;17.37;54.31
69796;BME280;57073;45.650;9.612;2023-05-09T09:06:38;99457.63;;;17.70;53.22
69796;BME280;57073;45.650;9.612;2023-05-09T09:11:39;99447.31;;;17.51;53.71
69796;BME280;57073;45.650;9.612;2023-05-09T09:16:41;99443.31;;;17.93;53.42
69796;BME280;57073;45.650;9.612;2023-05-09T09:21:44;99425.38;;;17.82;53.00
69796;BME280;57073;45.650;9.612;2023-05-09T09:26:47;99437.72;;;18.14;53.49
69796;BME280;57073;45.650;9.612;2023-05-09T09:31:52;99438.34;;;18.45;53.39
69796;BME280;57073;45.650;9.612;2023-05-09T09:36:53;99434.25;;;18.72;53.86
69796;BME280;57073;45.650;9.612;2023-05-09T09:41:54;99426.66;;;18.98;53.28
69796;BME280;57073;45.650;9.612;2023-05-09T09:46:54;99421.63;;;19.34;52.57
69796;BME280;57073;45.650;9.612;2023-05-09T09:51:57;99419.59;;;19.64;52.75
69796;BME280;57073;45.650;9.612;2023-05-09T09:56:57;99414.38;;;19.87;51.88
69796;BME280;57073;45.650;9.612;2023-05-09T10:02:06;99412.88;;;19.94;50.26
69796;BME280;57073;45.650;9.612;2023-05-09T10:07:08;99416.31;;;20.24;51.44
69796;BME280;57073;45.650;9.612;2023-05-09T10:12:10;99415.53;;;20.38;51.17
69796;BME280;57073;45.650;9.612;2023-05-09T10:17:13;99407.88;;;20.21;49.35
69796;BME280;57073;45.650;9.612;2023-05-09T10:22:15;99400.97;;;20.23;49.93
69796;BME280;57073;45.650;9.612;2023-05-09T10:27:21;99393.06;;;19.84;48.94
69796;BME280;57073;45.650;9.612;2023-05-09T10:37:25;99376.38;;;20.04;47.93
69796;BME280;57073;45.650;9.612;2023-05-09T10:42:26;99368.69;;;20.06;47.79
69796;BME280;57073;45.650;9.612;2023-05-09T10:47:28;99372.22;;;20.40;48.73
69796;BME280;57073;45.650;9.612;2023-05-09T10:52:32;99366.09;;;20.29;48.54
69796;BME280;57073;45.650;9.612;2023-05-09T10:57:38;99360.16;;;19.89;47.79
69796;BME280;57073;45.650;9.612;2023-05-09T11:02:38;99351.34;;;19.92;47.08
69796;BME280;57073;45.650;9.612;2023-05-09T11:07:38;99345.38;;;19.71;48.39
69796;BME280;57073;45.650;9.612;2023-05-09T11:13:05;99340.84;;;19.99;47.78
69796;BME280;57073;45.650;9.612;2023-05-09T11:18:09;99324.56;;;19.89;48.30
69796;BME280;57073;45.650;9.612;2023-05-09T11:23:10;99303.50;;;19.89;47.83
69796;BME280;57073;45.650;9.612;2023-05-09T11:28:35;99308.03;;;19.42;48.41
69796;BME280;57073;45.650;9.612;2023-05-09T11:33:37;99298.84;;;19.90;48.93
69796;BME280;57073;45.650;9.612;2023-05-09T11:38:41;99287.25;;;19.60;48.81
69796;BME280;57073;45.650;9.612;2023-05-09T11:43:44;99289.78;;;19.56;49.09
69796;BME280;57073;45.650;9.612;2023-05-09T11:48:47;99276.19;;;19.51;48.26
69796;BME280;57073;45.650;9.612;2023-05-09T11:53:50;99271.38;;;19.95;48.93
69796;BME280;57073;45.650;9.612;2023-05-09T11:58:53;99269.06;;;20.02;47.98
69796;BME280;57073;45.650;9.612;2023-05-09T12:03:53;99257.50;;;20.24;48.49
69796;BME280;57073;45.650;9.612;2023-05-09T12:08:54;99247.44;;;19.87;48.05
69796;BME280;57073;45.650;9.612;2023-05-09T12:13:55;99248.63;;;19.81;48.95
69796;BME280;57073;45.650;9.612;2023-05-09T12:18:56;99237.97;;;19.65;47.96
69796;BME280;57073;45.650;9.612;2023-05-09T12:23:56;99222.97;;;20.09;48.81
69796;BME280;57073;45.650;9.612;2023-05-09T12:28:56;99230.25;;;19.67;47.43
69796;BME280;57073;45.650;9.612;2023-05-09T12:33:57;99221.47;;;19.51;48.00
69796;BME280;57073;45.650;9.612;2023-05-09T12:38:57;99217.09;;;19.69;47.36
69796;BME280;57073;45.650;9.612;2023-05-09T12:43:57;99217.28;;;19.40;48.25
69796;BME280;57073;45.650;9.612;2023-05-09T12:48:58;99204.13;;;19.75;48.07
69796;BME280;57073;45.650;9.612;2023-05-09T12:54:02;99197.78;;;19.47;47.65
69796;BME280;57073;45.650;9.612;2023-05-09T12:59:09;99201.34;;;19.94;47.53
69796;BME280;57073;45.650;9.612;2023-05-09T13:04:09;99185.56;;;19.58;47.30
69796;BME280;57073;45.650;9.612;2023-05-09T13:09:10;99187.22;;;19.73;46.75
69796;BME280;57073;45.650;9.612;2023-05-09T13:14:12;99175.88;;;19.80;47.04
69796;BME280;57073;45.650;9.612;2023-05-09T13:19:13;99155.75;;;19.43;46.62
69796;BME280;57073;45.650;9.612;2023-05-09T13:24:13;99161.75;;;19.58;47.28
69796;BME280;57073;45.650;9.612;2023-05-09T13:29:13;99158.75;;;19.88;46.97
69796;BME280;57073;45.650;9.612;2023-05-09T13:34:14;99151.97;;;19.38;45.83
69796;BME280;57073;45.650;9.612;2023-05-09T13:39:14;99148.47;;;19.52;46.80
69796;BME280;57073;45.650;9.612;2023-05-09T13:44:15;99141.03;;;19.85;45.90
69796;BME280;57073;45.650;9.612;2023-05-09T13:49:16;99135.44;;;19.76;45.28
69796;BME280;57073;45.650;9.612;2023-05-09T13:54:16;99127.53;;;19.75;45.17
69796;BME280;57073;45.650;9.612;2023-05-09T13:59:18;99114.88;;;19.65;45.01
69796;BME280;57073;45.650;9.612;2023-05-09T14:04:19;99114.69;;;19.89;44.54
69796;BME280;57073;45.650;9.612;2023-05-09T14:09:19;99109.91;;;19.95;45.03
69796;BME280;57073;45.650;9.612;2023-05-09T14:14:22;99098.69;;;19.83;44.45
69796;BME280;57073;45.650;9.612;2023-05-09T14:19:23;99094.53;;;19.99;45.19
69796;BME280;57073;45.650;9.612;2023-05-09T14:24:26;99093.84;;;20.07;45.15
69796;BME280;57073;45.650;9.612;2023-05-09T14:29:29;99083.38;;;19.82;45.21
69796;BME280;57073;45.650;9.612;2023-05-09T14:34:31;99077.91;;;19.82;45.65
69796;BME280;57073;45.650;9.612;2023-05-09T14:39:31;99062.50;;;19.86;44.40
69796;BME280;57073;45.650;9.612;2023-05-09T14:44:31;99058.94;;;19.57;45.26
69796;BME280;57073;45.650;9.612;2023-05-09T14:49:32;99063.09;;;19.69;45.50
69796;BME280;57073;45.650;9.612;2023-05-09T14:54:33;99059.25;;;19.56;44.44
69796;BME280;57073;45.650;9.612;2023-05-09T14:59:33;99055.00;;;19.64;44.55
69796;BME280;57073;45.650;9.612;2023-05-09T15:04:34;99055.81;;;19.50;45.14
69796;BME280;57073;45.650;9.612;2023-05-09T15:09:34;99050.13;;;19.61;44.75
69796;BME280;57073;45.650;9.612;2023-05-09T15:14:35;99054.97;;;19.50;44.70
69796;BME280;57073;45.650;9.612;2023-05-09T15:19:35;99036.16;;;19.76;44.96
69796;BME280;57073;45.650;9.612;2023-05-09T15:24:37;99030.47;;;19.58;45.18
69796;BME280;57073;45.650;9.612;2023-05-09T15:29:37;99041.53;;;19.67;45.22
69796;BME280;57073;45.650;9.612;2023-05-09T15:34:37;99026.41;;;19.42;45.20
69796;BME280;57073;45.650;9.612;2023-05-09T15:39:38;99034.94;;;19.68;46.10
69796;BME280;57073;45.650;9.612;2023-05-09T15:44:42;99035.47;;;19.24;46.34
69796;BME280;57073;45.650;9.612;2023-05-09T15:49:42;99030.59;;;19.20;46.04
69796;BME280;57073;45.650;9.612;2023-05-09T15:54:43;99024.78;;;19.27;45.96
69796;BME280;57073;45.650;9.612;2023-05-09T15:59:44;99018.00;;;19.38;45.64
69796;BME280;57073;45.650;9.612;2023-05-09T16:04:44;99019.25;;;19.13;46.50
69796;BME280;57073;45.650;9.612;2023-05-09T16:09:45;99009.59;;;19.02;46.70
69796;BME280;57073;45.650;9.612;2023-05-09T16:14:45;99015.31;;;19.19;46.69
69796;BME280;57073;45.650;9.612;2023-05-09T16:19:46;99006.28;;;19.05;47.07
69796;BME280;57073;45.650;9.612;2023-05-09T16:24:46;99001.13;;;19.04;46.89
69796;BME280;57073;45.650;9.612;2023-05-09T16:29:48;99002.41;;;18.92;46.73
69796;BME280;57073;45.650;9.612;2023-05-09T16:34:48;98990.91;;;19.09;46.38
69796;BME280;57073;45.650;9.612;2023-05-09T16:39:48;98985.59;;;18.85;46.29
69796;BME280;57073;45.650;9.612;2023-05-09T16:44:49;98978.91;;;18.77;46.67
69796;BME280;57073;45.650;9.612;2023-05-09T16:49:49;98980.38;;;18.70;47.55
69796;BME280;57073;45.650;9.612;2023-05-09T16:54:49;98973.81;;;18.71;47.42
69796;BME280;57073;45.650;9.612;2023-05-09T16:59:52;98974.97;;;18.64;48.05
69796;BME280;57073;45.650;9.612;2023-05-09T17:04:52;98971.16;;;18.66;47.89
69796;BME280;57073;45.650;9.612;2023-05-09T17:09:52;98971.31;;;18.55;48.09
69796;BME280;57073;45.650;9.612;2023-05-09T17:14:53;98972.22;;;18.51;48.16
69796;BME280;57073;45.650;9.612;2023-05-09T17:19:53;98975.97;;;18.55;47.81
69796;BME280;57073;45.650;9.612;2023-05-09T17:24:54;98972.00;;;18.47;47.91
69796;BME280;57073;45.650;9.612;2023-05-09T17:29:54;98965.56;;;18.38;48.96
69796;BME280;57073;45.650;9.612;2023-05-09T17:34:55;98977.47;;;18.47;49.67
69796;BME280;57073;45.650;9.612;2023-05-09T17:39:55;98978.41;;;18.18;52.36
69796;BME280;57073;45.650;9.612;2023-05-09T17:44:55;98986.06;;;18.16;52.98
69796;BME280;57073;45.650;9.612;2023-05-09T17:49:56;98985.38;;;17.38;55.26
69796;BME280;57073;45.650;9.612;2023-05-09T17:54:56;98999.63;;;17.30;56.08
69796;BME280;57073;45.650;9.612;2023-05-09T17:59:56;98992.34;;;17.49;56.29
69796;BME280;57073;45.650;9.612;2023-05-09T18:04:57;99004.66;;;17.18;57.70
69796;BME280;57073;45.650;9.612;2023-05-09T18:09:57;98999.81;;;17.15;56.89
69796;BME280;57073;45.650;9.612;2023-05-09T18:14:58;98992.78;;;16.74;59.32
69796;BME280;57073;45.650;9.612;2023-05-09T18:19:59;98994.72;;;16.68;58.68
69796;BME280;57073;45.650;9.612;2023-05-09T18:24:59;98993.66;;;16.64;59.96
69796;BME280;57073;45.650;9.612;2023-05-09T18:29:59;98990.28;;;16.43;60.54
69796;BME280;57073;45.650;9.612;2023-05-09T18:35:00;99002.19;;;16.13;60.83
69796;BME280;57073;45.650;9.612;2023-05-09T18:40:00;99007.69;;;15.98;60.67
69796;BME280;57073;45.650;9.612;2023-05-09T18:45:01;98998.72;;;15.97;60.88
69796;BME280;57073;45.650;9.612;2023-05-09T18:50:04;98998.00;;;16.31;59.51
69796;BME280;57073;45.650;9.612;2023-05-09T18:55:06;99006.59;;;16.04;60.60
69796;BME280;57073;45.650;9.612;2023-05-09T19:00:07;99010.41;;;15.98;60.50
69796;BME280;57073;45.650;9.612;2023-05-09T19:05:07;99015.88;;;15.92;60.37
69796;BME280;57073;45.650;9.612;2023-05-09T19:10:08;99024.25;;;16.01;60.01
69796;BME280;57073;45.650;9.612;2023-05-09T19:15:09;99032.94;;;16.03;59.72
69796;BME280;57073;45.650;9.612;2023-05-09T19:20:10;99036.53;;;15.99;60.90
69796;BME280;57073;45.650;9.612;2023-05-09T19:25:11;99036.44;;;16.14;59.34
69796;BME280;57073;45.650;9.612;2023-05-09T19:30:12;99044.63;;;16.09;61.01
69796;BME280;57073;45.650;9.612;2023-05-09T19:35:14;99049.31;;;15.98;61.82
69796;BME280;57073;45.650;9.612;2023-05-09T19:40:15;99056.09;;;16.01;62.08
69796;BME280;57073;45.650;9.612;2023-05-09T19:45:15;99050.81;;;15.24;64.17
69796;BME280;57073;45.650;9.612;2023-05-09T19:50:16;99043.25;;;15.15;65.14
69796;BME280;57073;45.650;9.612;2023-05-09T19:55:16;99045.91;;;14.74;66.75
69796;BME280;57073;45.650;9.612;2023-05-09T20:00:17;99044.31;;;14.78;67.15
69796;BME280;57073;45.650;9.612;2023-05-09T20:05:17;99041.81;;;14.56;67.39
69796;BME280;57073;45.650;9.612;2023-05-09T20:10:17;99049.41;;;14.39;68.17
69796;BME280;57073;45.650;9.612;2023-05-09T20:15:18;99038.75;;;14.07;69.97
69796;BME280;57073;45.650;9.612;2023-05-09T20:20:18;99036.63;;;14.19;69.30
69796;BME280;57073;45.650;9.612;2023-05-09T20:25:18;99021.91;;;13.99;69.41
69796;BME280;57073;45.650;9.612;2023-05-09T20:30:19;99019.69;;;13.91;70.52
69796;BME280;57073;45.650;9.612;2023-05-09T20:35:20;99001.88;;;14.11;70.47
69796;BME280;57073;45.650;9.612;2023-05-09T20:40:20;98995.13;;;14.23;71.44
69796;BME280;57073;45.650;9.612;2023-05-09T20:45:20;98986.94;;;14.03;72.17
69796;BME280;57073;45.650;9.612;2023-05-09T20:50:21;98980.22;;;14.21;72.10
69796;BME280;57073;45.650;9.612;2023-05-09T20:55:21;98969.59;;;14.14;71.94
69796;BME280;57073;45.650;9.612;2023-05-09T21:00:21;98975.00;;;14.04;72.95
69796;BME280;57073;45.650;9.612;2023-05-09T21:05:22;98965.19;;;13.82;74.92
69796;BME280;57073;45.650;9.612;2023-05-09T21:10:22;98967.69;;;13.99;74.42
69796;BME280;57073;45.650;9.612;2023-05-09T21:15:23;98977.59;;;13.73;74.15
69796;BME280;57073;45.650;9.612;2023-05-09T21:20:24;98974.94;;;13.25;74.43
69796;BME280;57073;45.650;9.612;2023-05-09T21:25:25;98976.47;;;13.11;74.60
69796;BME280;57073;45.650;9.612;2023-05-09T21:30:25;98986.03;;;13.24;74.28
69796;BME280;57073;45.650;9.612;2023-05-09T21:35:25;98979.44;;;13.04;73.82
69796;BME280;57073;45.650;9.612;2023-05-09T21:40:26;98974.00;;;12.72;75.25
69796;BME280;57073;45.650;9.612;2023-05-09T21:45:26;98961.69;;;12.54;75.49
69796;BME280;57073;45.650;9.612;2023-05-09T21:50:26;98965.97;;;12.50;75.60
69796;BME280;57073;45.650;9.612;2023-05-09T21:55:27;98950.09;;;12.59;75.71
69796;BME280;57073;45.650;9.612;2023-05-09T22:00:27;98928.19;;;12.60;74.97
69796;BME280;57073;45.650;9.612;2023-05-09T22:05:28;98934.31;;;12.45;75.62
69796;BME280;57073;45.650;9.612;2023-05-09T22:10:28;98936.78;;;12.20;76.06
69796;BME280;57073;45.650;9.612;2023-05-09T22:15:28;98943.16;;;12.73;74.61
69796;BME280;57073;45.650;9.612;2023-05-09T22:20:29;98940.78;;;12.44;75.44
69796;BME280;57073;45.650;9.612;2023-05-09T22:25:29;98939.16;;;12.43;76.30
69796;BME280;57073;45.650;9.612;2023-05-09T22:30:30;98933.91;;;12.31;75.72
69796;BME280;57073;45.650;9.612;2023-05-09T22:35:30;98950.69;;;12.33;76.72
69796;BME280;57073;45.650;9.612;2023-05-09T22:40:31;98952.78;;;12.26;76.84
69796;BME280;57073;45.650;9.612;2023-05-09T22:45:31;98963.06;;;12.57;75.92
69796;BME280;57073;45.650;9.612;2023-05-09T22:50:32;98970.47;;;12.66;74.71
69796;BME280;57073;45.650;9.612;2023-05-09T22:55:32;98967.88;;;12.49;74.98
69796;BME280;57073;45.650;9.612;2023-05-09T23:00:32;98960.25;;;12.41;75.18
69796;BME280;57073;45.650;9.612;2023-05-09T23:05:33;98964.69;;;12.25;75.61
69796;BME280;57073;45.650;9.612;2023-05-09T23:10:35;98955.38;;;12.43;75.18
69796;BME280;57073;45.650;9.612;2023-05-09T23:15:35;98948.72;;;12.24;75.57
69796;BME280;57073;45.650;9.612;2023-05-09T23:20:35;98945.50;;;12.27;74.92
69796;BME280;57073;45.650;9.612;2023-05-09T23:25:36;98939.50;;;11.92;75.61
69796;BME280;57073;45.650;9.612;2023-05-09T23:30:36;98924.81;;;11.83;75.39
69796;BME280;57073;45.650;9.612;2023-05-09T23:35:36;98923.88;;;11.72;75.92
69796;BME280;57073;45.650;9.612;2023-05-09T23:40:37;98914.50;;;11.80;76.35
69796;BME280;57073;45.650;9.612;2023-05-09T23:45:37;98913.75;;;11.57;76.46
69796;BME280;57073;45.650;9.612;2023-05-09T23:50:38;98907.31;;;11.91;75.80
69796;BME280;57073;45.650;9.612;2023-05-09T23:55:38;98904.16;;;11.99;75.64
